createdAt,value
2018-06-25T00:01:03.341Z,11.23
2018-06-25T00:06:07.130Z,9.80
2018-06-25T00:11:11.150Z,9.27
2018-06-25T00:16:14.930Z,8.60
2018-06-25T00:21:18.705Z,10.57
2018-06-25T00:26:22.667Z,8.73
2018-06-25T00:31:26.570Z,8.20
2018-06-25T00:36:30.711Z,8.37
2018-06-25T00:41:34.485Z,8.43
2018-06-25T00:46:38.285Z,8.53
2018-06-25T00:51:42.313Z,8.63
2018-06-25T00:56:46.330Z,9.13
2018-06-25T01:01:50.141Z,8.67
2018-06-25T01:06:53.965Z,8.30
2018-06-25T01:11:57.739Z,9.03
2018-06-25T01:17:01.754Z,9.27
2018-06-25T01:22:06.121Z,9.23
2018-06-25T01:27:10.673Z,9.43
2018-06-25T01:32:14.461Z,11.97
2018-06-25T01:37:18.471Z,12.07
2018-06-25T01:42:22.491Z,14.03
2018-06-25T01:47:26.277Z,13.90
2018-06-25T01:52:30.116Z,14.03
2018-06-25T01:57:34.133Z,13.43
2018-06-25T02:02:37.925Z,14.30
2018-06-25T02:07:41.726Z,15.53
2018-06-25T02:12:45.512Z,15.13
2018-06-25T02:17:49.549Z,13.33
2018-06-25T02:22:53.377Z,13.13
2018-06-25T02:27:57.172Z,13.00
2018-06-25T02:33:01.259Z,12.70
2018-06-25T02:38:05.343Z,12.37
2018-06-25T02:43:09.122Z,14.90
2018-06-25T02:48:13.165Z,13.20
2018-06-25T02:53:17.210Z,15.97
2018-06-25T02:58:21.009Z,16.90
2018-06-25T03:03:24.793Z,17.60
2018-06-25T03:08:28.703Z,16.07
2018-06-25T03:13:32.821Z,18.33
2018-06-25T03:18:36.631Z,14.93
2018-06-25T03:23:40.697Z,17.20
2018-06-25T03:28:44.770Z,17.80
2018-06-25T03:33:48.835Z,14.27
2018-06-25T03:38:52.898Z,17.63
2018-06-25T03:43:56.720Z,13.75
2018-06-25T03:49:00.519Z,15.83
2018-06-25T03:54:04.319Z,16.10
2018-06-25T03:59:08.481Z,16.47
2018-06-25T04:04:12.295Z,14.70
2018-06-25T04:09:16.366Z,17.80
2018-06-25T04:14:20.393Z,16.57
2018-06-25T04:19:24.226Z,19.03
2018-06-25T04:24:28.052Z,15.93
2018-06-25T04:29:31.870Z,16.13
2018-06-25T04:34:35.925Z,16.57
2018-06-25T04:39:39.730Z,17.07
2018-06-25T04:44:43.553Z,16.87
2018-06-25T04:49:47.363Z,14.10
2018-06-25T04:54:51.196Z,16.50
2018-06-25T04:59:55.229Z,17.93
2018-06-25T05:04:59.031Z,17.13
2018-06-25T05:10:03.149Z,17.23
2018-06-25T05:15:06.948Z,19.13
2018-06-25T05:20:11.027Z,18.40
2018-06-25T05:25:14.830Z,19.40
2018-06-25T05:30:18.608Z,17.52
2018-06-25T05:35:22.421Z,19.13
2018-06-25T05:40:26.438Z,16.77
2018-06-25T05:45:30.213Z,16.73
2018-06-25T05:50:34.235Z,14.43
2018-06-25T05:55:38.046Z,13.47
2018-06-25T06:00:41.857Z,12.17
2018-06-25T06:05:45.632Z,10.23
2018-06-25T06:10:49.425Z,12.83
2018-06-25T06:15:53.435Z,10.07
2018-06-25T06:20:57.276Z,10.83
2018-06-25T06:26:01.585Z,10.70
2018-06-25T06:31:05.378Z,11.22
2018-06-25T06:36:08.797Z,15.57
2018-06-25T06:41:12.564Z,10.93
2018-06-25T06:46:16.669Z,12.83
2018-06-25T06:51:20.531Z,11.57
2018-06-25T06:56:24.538Z,15.07
2018-06-25T07:01:28.350Z,21.50
2018-06-25T07:06:32.196Z,17.47
2018-06-25T07:11:36.113Z,20.03
2018-06-25T07:16:40.921Z,17.57
2018-06-25T07:21:44.979Z,12.90
2018-06-25T07:26:48.809Z,12.63
2018-06-25T07:31:53.055Z,12.60
2018-06-25T07:36:56.862Z,13.43
2018-06-25T07:42:00.687Z,16.00
2018-06-25T07:47:04.829Z,13.03
2018-06-25T07:52:08.577Z,14.60
2018-06-25T07:57:12.422Z,11.77
2018-06-25T08:02:16.277Z,10.77
2018-06-25T08:07:21.124Z,10.23
2018-06-25T08:12:24.906Z,10.30
2018-06-25T08:17:28.901Z,10.07
2018-06-25T08:22:32.686Z,10.47
2018-06-25T08:27:37.708Z,9.77
2018-06-25T08:32:41.477Z,9.83
2018-06-25T08:37:45.249Z,9.63
2018-06-25T08:42:49.253Z,9.93
2018-06-25T08:47:53.029Z,9.90
2018-06-25T08:52:56.804Z,9.23
2018-06-25T08:58:00.632Z,8.90
2018-06-25T09:03:04.436Z,8.67
2018-06-25T09:08:08.164Z,9.23
2018-06-25T09:13:11.936Z,8.73
2018-06-25T09:18:15.957Z,9.90
2018-06-25T09:23:19.980Z,10.93
2018-06-25T09:28:23.969Z,11.47
2018-06-25T09:33:28.041Z,11.27
2018-06-25T09:38:32.054Z,10.13
2018-06-25T09:43:36.071Z,9.30
2018-06-25T09:48:40.079Z,8.90
2018-06-25T09:53:44.521Z,7.62
2018-06-25T09:58:48.438Z,7.67
2018-06-25T10:03:52.229Z,9.70
2018-06-25T10:08:56.297Z,9.03
2018-06-25T10:14:00.168Z,8.23
2018-06-25T10:19:04.433Z,8.10
2018-06-25T10:24:08.641Z,8.00
2018-06-25T10:29:12.449Z,9.00
2018-06-25T10:34:16.273Z,10.63
2018-06-25T10:39:20.084Z,11.27
2018-06-25T10:44:23.870Z,8.40
2018-06-25T10:49:27.900Z,8.03
2018-06-25T10:54:32.045Z,7.93
2018-06-25T10:59:36.207Z,12.10
2018-06-25T11:04:40.173Z,13.10
2018-06-25T11:09:43.974Z,9.28
2018-06-25T11:14:47.913Z,8.00
2018-06-25T11:19:51.709Z,9.73
2018-06-25T11:24:55.684Z,8.03
2018-06-25T11:29:59.485Z,7.23
2018-06-25T11:35:03.545Z,7.30
2018-06-25T11:40:07.601Z,12.47
2018-06-25T11:45:11.645Z,11.77
2018-06-25T11:50:15.699Z,12.63
2018-06-25T11:55:19.499Z,11.93
2018-06-25T12:00:23.270Z,13.20
2018-06-25T12:05:27.037Z,14.03
2018-06-25T12:10:31.107Z,18.97
2018-06-25T12:15:36.074Z,19.17
2018-06-25T12:20:39.884Z,21.93
2018-06-25T12:25:43.668Z,20.63
2018-06-25T12:30:47.439Z,19.30
2018-06-25T12:35:51.671Z,18.23
2018-06-25T12:40:55.724Z,19.53
2018-06-25T12:45:59.713Z,21.03
2018-06-25T12:51:03.498Z,18.27
2018-06-25T12:56:07.314Z,15.90
2018-06-25T13:01:11.113Z,13.37
2018-06-25T13:06:15.016Z,14.00
2018-06-25T13:11:18.820Z,13.17
2018-06-25T13:16:22.877Z,13.50
2018-06-25T13:21:27.501Z,15.67
2018-06-25T13:26:31.357Z,14.70
2018-06-25T13:31:35.198Z,16.70
2018-06-25T13:36:38.984Z,11.33
2018-06-25T13:41:43.091Z,13.87
2018-06-25T13:46:47.138Z,12.50
2018-06-25T13:51:50.958Z,13.80
2018-06-25T13:56:54.786Z,16.03
2018-06-25T14:01:58.619Z,13.87
2018-06-25T14:07:02.671Z,14.87
2018-06-25T14:12:06.473Z,16.47
2018-06-25T14:17:10.558Z,19.10
2018-06-25T14:22:14.365Z,16.90
2018-06-25T14:27:18.407Z,19.30
2018-06-25T14:32:27.501Z,19.67
2018-06-25T14:37:31.575Z,20.07
2018-06-25T14:42:35.633Z,20.67
2018-06-25T14:47:39.444Z,18.00
2018-06-25T14:52:43.337Z,17.97
2018-06-25T14:57:47.389Z,15.67
2018-06-25T15:02:52.396Z,12.53
2018-06-25T15:07:56.221Z,11.60
2018-06-25T15:13:01.075Z,11.67
2018-06-25T15:18:05.577Z,9.43
2018-06-25T15:23:09.382Z,7.33
2018-06-25T15:28:13.197Z,9.23
2018-06-25T15:33:16.992Z,6.60
2018-06-25T15:38:20.821Z,4.80
2018-06-25T15:43:24.866Z,5.17
2018-06-25T15:48:28.905Z,6.07
2018-06-25T15:53:32.981Z,4.00
2018-06-25T15:58:37.027Z,6.40
2018-06-25T16:03:40.833Z,4.10
2018-06-25T16:08:44.636Z,4.13
2018-06-25T16:13:48.505Z,5.70
2018-06-25T16:18:52.513Z,3.97
2018-06-25T16:23:56.305Z,4.03
2018-06-25T16:29:00.223Z,5.77
2018-06-25T16:34:04.324Z,5.87
2018-06-25T16:39:10.227Z,4.53
2018-06-25T16:44:14.110Z,5.77
2018-06-25T16:49:17.930Z,5.10
2018-06-25T16:54:21.732Z,3.87
2018-06-25T16:59:25.561Z,4.73
2018-06-25T17:04:29.342Z,3.73
2018-06-25T17:09:33.384Z,6.23
2018-06-25T17:14:37.197Z,6.27
2018-06-25T17:19:41.005Z,4.20
2018-06-25T17:24:44.814Z,5.33
2018-06-25T17:29:48.841Z,6.13
2018-06-25T17:34:52.645Z,3.87
2018-06-25T17:39:56.440Z,5.57
2018-06-25T17:45:00.342Z,5.10
2018-06-25T17:50:04.206Z,6.80
2018-06-25T17:55:08.064Z,5.07
2018-06-25T18:00:11.837Z,6.77
2018-06-25T18:05:15.608Z,5.17
2018-06-25T18:10:19.537Z,5.83
2018-06-25T18:15:23.534Z,7.07
2018-06-25T18:20:27.317Z,4.83
2018-06-25T18:25:31.117Z,8.63
2018-06-25T18:30:35.866Z,6.10
2018-06-25T18:35:39.889Z,4.77
2018-06-25T18:40:43.902Z,6.13
2018-06-25T18:45:48.798Z,6.63
2018-06-25T18:50:52.923Z,6.80
2018-06-25T18:55:56.771Z,5.47
2018-06-25T19:01:00.602Z,6.57
2018-06-25T19:06:04.530Z,7.30
2018-06-25T19:11:08.585Z,5.20
2018-06-25T19:16:12.700Z,7.57
2018-06-25T19:21:16.534Z,5.30
2018-06-25T19:26:20.431Z,6.47
2018-06-25T19:31:26.526Z,7.70
2018-06-25T19:36:30.343Z,6.30
2018-06-25T19:41:34.413Z,6.57
2018-06-25T19:46:38.482Z,9.13
2018-06-25T19:51:42.619Z,6.67
2018-06-25T19:56:46.664Z,5.60
2018-06-25T20:01:50.666Z,5.37
2018-06-25T20:06:54.682Z,5.90
2018-06-25T20:11:58.573Z,7.57
2018-06-25T20:17:02.640Z,5.40
2018-06-25T20:22:06.508Z,5.63
2018-06-25T20:27:10.196Z,6.13
2018-06-25T20:32:14.223Z,6.87
2018-06-25T20:37:18.041Z,5.87
2018-06-25T20:42:21.823Z,5.47
2018-06-25T20:47:25.855Z,6.67
2018-06-25T20:52:29.903Z,8.07
2018-06-25T20:57:34.116Z,8.07
2018-06-25T21:02:38.121Z,7.07
2018-06-25T21:07:41.906Z,8.03
2018-06-25T21:12:45.904Z,8.17
2018-06-25T21:17:49.700Z,7.03
2018-06-25T21:22:53.487Z,8.93
2018-06-25T21:27:57.298Z,5.60
2018-06-25T21:33:01.076Z,8.10
2018-06-25T21:38:05.162Z,6.10
2018-06-25T21:43:08.933Z,8.10
2018-06-25T21:48:12.708Z,7.23
2018-06-25T21:53:16.730Z,8.17
2018-06-25T21:58:20.599Z,6.90
2018-06-25T22:03:24.635Z,8.40
2018-06-25T22:08:28.452Z,7.17
2018-06-25T22:13:32.267Z,7.50
2018-06-25T22:18:36.072Z,6.40
2018-06-25T22:23:40.129Z,9.53
2018-06-25T22:28:43.925Z,7.20
2018-06-25T22:33:47.985Z,7.77
2018-06-25T22:38:52.164Z,7.80
2018-06-25T22:44:10.859Z,7.57
2018-06-25T22:49:14.653Z,10.53
2018-06-25T22:54:18.460Z,7.30
2018-06-25T22:59:23.049Z,8.43
2018-06-25T23:04:27.100Z,7.53
2018-06-25T23:09:31.166Z,6.67
2018-06-25T23:14:35.026Z,8.07
2018-06-25T23:19:38.877Z,6.60
2018-06-25T23:24:42.685Z,8.87
2018-06-25T23:29:46.729Z,8.13
2018-06-25T23:34:50.537Z,10.13
2018-06-25T23:39:54.340Z,6.60
2018-06-25T23:44:58.157Z,6.78
2018-06-25T23:50:02.274Z,7.00
2018-06-25T23:55:06.060Z,8.23
